createdAt,value
2023-03-17T00:00:55.974Z,47.40
2023-03-17T00:02:57.532Z,47.97
2023-03-17T00:04:59.174Z,48.00
2023-03-17T00:07:05.279Z,46.99
2023-03-17T00:09:11.983Z,47.62
2023-03-17T00:11:17.469Z,47.14
2023-03-17T00:13:20.229Z,47.71
2023-03-17T00:15:23.774Z,47.23
2023-03-17T00:17:25.281Z,47.05
2023-03-17T00:19:33.154Z,47.47
2023-03-17T00:21:35.693Z,47.10
2023-03-17T00:23:37.383Z,46.81
2023-03-17T00:25:40.811Z,47.63
2023-03-17T00:27:42.660Z,47.15
2023-03-17T00:29:44.739Z,47.38
2023-03-17T00:31:47.069Z,47.08
2023-03-17T00:33:51.413Z,47.05
2023-03-17T00:35:53.463Z,47.29
2023-03-17T00:37:58.462Z,46.98
2023-03-17T00:40:00.033Z,47.32
2023-03-17T00:42:03.136Z,47.13
2023-03-17T00:44:07.124Z,47.33
2023-03-17T00:46:13.130Z,47.50
2023-03-17T00:48:17.224Z,47.46
2023-03-17T00:50:21.571Z,47.09
2023-03-17T00:52:23.248Z,47.92
2023-03-17T00:54:25.354Z,47.53
2023-03-17T00:56:27.454Z,47.36
2023-03-17T00:58:34.188Z,47.99
2023-03-17T01:00:36.031Z,48.12
2023-03-17T01:02:37.934Z,47.53
2023-03-17T01:04:40.301Z,48.03
2023-03-17T01:06:42.603Z,47.93
2023-03-17T01:08:44.683Z,47.46
2023-03-17T01:10:46.806Z,47.86
2023-03-17T01:12:48.650Z,47.86
2023-03-17T01:14:51.735Z,47.81
2023-03-17T01:16:53.280Z,47.28
2023-03-17T01:18:57.588Z,47.50
2023-03-17T01:20:59.473Z,47.25
2023-03-17T01:23:02.352Z,47.40
2023-03-17T01:25:04.293Z,47.12
2023-03-17T01:27:06.354Z,47.54
2023-03-17T01:29:08.046Z,48.07
2023-03-17T01:31:11.482Z,47.33
2023-03-17T01:33:14.001Z,47.08
2023-03-17T01:35:16.542Z,47.70
2023-03-17T01:37:18.567Z,48.07
2023-03-17T01:39:20.829Z,48.13
2023-03-17T01:41:22.557Z,47.23
2023-03-17T01:43:26.955Z,47.64
2023-03-17T01:46:06.284Z,48.08
2023-03-17T01:48:09.722Z,48.04
2023-03-17T01:50:13.489Z,48.31
2023-03-17T01:52:20.213Z,47.93
2023-03-17T01:54:28.700Z,48.19
2023-03-17T01:56:31.730Z,48.07
2023-03-17T01:58:33.966Z,47.75
2023-03-17T02:00:36.077Z,47.51
2023-03-17T02:02:41.619Z,47.53
2023-03-17T02:04:46.268Z,47.69
2023-03-17T02:07:05.042Z,47.82
2023-03-17T02:09:09.420Z,47.21
2023-03-17T02:11:11.017Z,48.28
2023-03-17T02:13:14.439Z,47.84
2023-03-17T02:15:17.620Z,48.17
2023-03-17T02:17:20.305Z,48.04
2023-03-17T02:19:22.307Z,48.01
2023-03-17T02:21:43.257Z,48.48
2023-03-17T02:23:45.334Z,47.57
2023-03-17T02:25:47.762Z,48.24
2023-03-17T02:27:53.385Z,47.72
2023-03-17T02:29:54.980Z,48.26
2023-03-17T02:31:56.644Z,47.39
2023-03-17T02:33:58.241Z,47.71
2023-03-17T02:35:59.862Z,47.90
2023-03-17T02:38:02.860Z,48.66
2023-03-17T02:40:05.491Z,48.27
2023-03-17T02:42:07.856Z,47.71
2023-03-17T02:44:09.516Z,47.87
2023-03-17T02:46:12.908Z,48.47
2023-03-17T02:48:15.448Z,48.10
2023-03-17T02:50:20.308Z,48.50
2023-03-17T02:52:21.954Z,47.79
2023-03-17T02:54:25.126Z,47.85
2023-03-17T02:56:27.933Z,47.99
2023-03-17T02:58:29.785Z,48.38
2023-03-17T03:00:31.708Z,47.98
2023-03-17T03:02:33.642Z,48.53
2023-03-17T03:04:35.500Z,48.60
2023-03-17T03:06:37.566Z,48.35
2023-03-17T03:08:39.600Z,48.24
2023-03-17T03:10:43.429Z,48.29
2023-03-17T03:12:45.172Z,48.70
2023-03-17T03:14:47.303Z,48.36
2023-03-17T03:16:49.204Z,48.89
2023-03-17T03:18:50.999Z,48.24
2023-03-17T03:20:53.006Z,48.56
2023-03-17T03:22:55.116Z,48.38
2023-03-17T03:24:57.236Z,48.57
2023-03-17T03:27:00.576Z,48.78
2023-03-17T03:29:02.402Z,49.04
2023-03-17T03:31:04.267Z,48.84
2023-03-17T03:33:08.538Z,48.68
2023-03-17T03:35:10.587Z,48.89
2023-03-17T03:37:16.108Z,48.96
2023-03-17T03:39:17.759Z,48.75
2023-03-17T03:41:19.647Z,48.60
2023-03-17T03:43:25.151Z,48.86
2023-03-17T03:45:27.336Z,49.34
2023-03-17T03:47:31.187Z,48.65
2023-03-17T03:49:32.710Z,48.93
2023-03-17T03:51:34.617Z,49.38
2023-03-17T03:53:36.493Z,49.09
2023-03-17T03:55:38.149Z,48.64
2023-03-17T03:57:40.010Z,49.12
2023-03-17T03:59:43.309Z,49.14
2023-03-17T04:01:45.145Z,48.98
2023-03-17T04:03:46.759Z,49.01
2023-03-17T04:05:48.488Z,48.82
2023-03-17T04:07:50.619Z,49.02
2023-03-17T04:09:52.139Z,49.49
2023-03-17T04:11:55.685Z,49.30
2023-03-17T04:13:57.291Z,49.35
2023-03-17T04:16:00.500Z,49.26
2023-03-17T04:18:03.843Z,49.13
2023-03-17T04:20:06.965Z,49.54
2023-03-17T04:22:11.447Z,48.93
2023-03-17T04:24:13.222Z,48.78
2023-03-17T04:26:15.056Z,49.40
2023-03-17T04:28:16.656Z,49.03
2023-03-17T04:30:18.581Z,49.09
2023-03-17T04:32:22.421Z,49.50
2023-03-17T04:34:24.036Z,49.28
2023-03-17T04:36:26.113Z,49.05
2023-03-17T04:38:30.768Z,49.66
2023-03-17T04:40:33.646Z,49.42
2023-03-17T04:42:35.613Z,50.08
2023-03-17T04:44:37.824Z,49.24
2023-03-17T04:46:39.634Z,49.77
2023-03-17T04:48:42.936Z,49.31
2023-03-17T04:50:44.472Z,49.17
2023-03-17T04:52:46.802Z,49.49
2023-03-17T04:54:48.772Z,49.36
2023-03-17T04:56:50.901Z,49.76
2023-03-17T04:58:53.020Z,49.40
2023-03-17T05:00:54.684Z,49.29
2023-03-17T05:02:56.592Z,49.34
2023-03-17T05:04:59.664Z,49.82
2023-03-17T05:07:01.737Z,49.40
2023-03-17T05:09:03.832Z,49.66
2023-03-17T05:11:06.279Z,50.32
2023-03-17T05:13:08.138Z,49.51
2023-03-17T05:15:11.222Z,49.76
2023-03-17T05:17:12.787Z,49.51
2023-03-17T05:19:14.616Z,50.23
2023-03-17T05:21:17.706Z,49.93
2023-03-17T05:23:19.770Z,49.96
2023-03-17T05:25:21.594Z,50.29
2023-03-17T05:27:23.490Z,49.75
2023-03-17T05:29:25.146Z,49.67
2023-03-17T05:31:26.809Z,50.40
2023-03-17T05:33:29.000Z,50.38
2023-03-17T05:35:30.726Z,50.17
2023-03-17T05:37:33.686Z,50.07
2023-03-17T05:39:35.509Z,50.20
2023-03-17T05:41:37.484Z,50.10
2023-03-17T05:43:39.504Z,50.44
2023-03-17T05:45:41.248Z,50.30
2023-03-17T05:47:43.463Z,50.31
2023-03-17T05:49:45.014Z,50.11
2023-03-17T05:51:46.787Z,50.30
2023-03-17T05:53:51.482Z,49.99
2023-03-17T05:55:54.531Z,50.03
2023-03-17T05:57:56.555Z,50.80
2023-03-17T05:59:58.174Z,50.84
2023-03-17T06:02:00.398Z,50.64
2023-03-17T06:04:03.522Z,50.41
2023-03-17T06:06:05.937Z,50.38
2023-03-17T06:08:07.659Z,50.85
2023-03-17T06:10:11.963Z,51.06
2023-03-17T06:12:13.931Z,50.96
2023-03-17T06:14:15.781Z,50.80
2023-03-17T06:16:17.415Z,50.74
2023-03-17T06:18:21.470Z,50.52
2023-03-17T06:20:22.991Z,50.99
2023-03-17T06:22:26.085Z,51.19
2023-03-17T06:24:29.215Z,51.01
2023-03-17T06:26:32.105Z,50.12
2023-03-17T06:28:34.213Z,50.82
2023-03-17T06:30:40.013Z,51.16
2023-03-17T06:32:43.822Z,51.20
2023-03-17T06:34:45.486Z,50.54
2023-03-17T06:36:47.470Z,50.90
2023-03-17T06:38:49.326Z,51.04
2023-03-17T06:40:50.925Z,50.81
2023-03-17T06:42:56.324Z,50.71
2023-03-17T06:44:59.383Z,51.09
2023-03-17T06:47:00.928Z,50.92
2023-03-17T06:49:03.313Z,50.37
2023-03-17T06:51:06.016Z,51.00
2023-03-17T06:53:07.629Z,50.41
2023-03-17T06:55:10.480Z,50.72
2023-03-17T06:57:12.375Z,50.38
2023-03-17T06:59:15.486Z,50.32
2023-03-17T07:01:18.178Z,50.01
2023-03-17T07:03:20.743Z,50.45
2023-03-17T07:05:22.948Z,50.78
2023-03-17T07:07:24.774Z,50.65
2023-03-17T07:09:26.776Z,49.99
2023-03-17T07:11:28.452Z,49.44
2023-03-17T07:13:30.437Z,50.07
2023-03-17T07:15:33.645Z,50.10
2023-03-17T07:17:35.842Z,50.35
2023-03-17T07:19:38.168Z,49.38
2023-03-17T07:21:39.913Z,50.04
2023-03-17T07:23:42.545Z,50.12
2023-03-17T07:25:45.661Z,50.11
2023-03-17T07:27:50.122Z,50.13
2023-03-17T07:29:53.641Z,50.00
2023-03-17T07:31:57.582Z,50.14
2023-03-17T07:33:59.513Z,49.14
2023-03-17T07:36:01.695Z,49.82
2023-03-17T07:38:03.429Z,49.60
2023-03-17T07:40:06.257Z,49.31
2023-03-17T07:42:10.094Z,48.98
2023-03-17T07:44:12.389Z,49.19
2023-03-17T07:46:14.116Z,48.92
2023-03-17T07:48:17.388Z,48.42
2023-03-17T07:50:19.454Z,49.04
2023-03-17T07:52:21.262Z,48.26
2023-03-17T07:54:22.857Z,49.03
2023-03-17T07:56:24.627Z,48.69
2023-03-17T07:58:26.755Z,47.95
2023-03-17T08:00:28.592Z,48.86
2023-03-17T08:02:30.873Z,48.04
2023-03-17T08:04:34.051Z,48.07
2023-03-17T08:06:36.637Z,48.41
2023-03-17T08:08:38.554Z,47.92
2023-03-17T08:10:40.762Z,48.17
2023-03-17T08:12:44.789Z,48.39
2023-03-17T08:14:46.932Z,47.80
2023-03-17T08:16:48.920Z,47.43
2023-03-17T08:18:50.572Z,47.95
2023-03-17T08:20:53.910Z,47.82
2023-03-17T08:22:55.698Z,47.36
2023-03-17T08:24:57.607Z,47.88
2023-03-17T08:27:00.844Z,47.79
2023-03-17T08:29:02.647Z,47.69
2023-03-17T08:31:12.346Z,48.14
2023-03-17T08:33:14.639Z,47.43
2023-03-17T08:35:17.667Z,47.28
2023-03-17T08:37:21.095Z,46.87
2023-03-17T08:39:25.119Z,47.06
2023-03-17T08:41:28.243Z,47.07
2023-03-17T08:43:30.253Z,47.26
2023-03-17T08:45:32.711Z,47.12
2023-03-17T08:47:34.465Z,47.09
2023-03-17T08:49:36.426Z,47.92
2023-03-17T08:51:39.826Z,47.72
2023-03-17T08:53:43.103Z,47.70
2023-03-17T08:55:44.952Z,47.70
2023-03-17T08:57:46.824Z,47.40
2023-03-17T08:59:49.245Z,47.19
2023-03-17T09:01:51.456Z,46.98
2023-03-17T09:03:54.737Z,47.19
2023-03-17T09:05:56.931Z,47.03
2023-03-17T09:07:58.522Z,46.56
2023-03-17T09:10:01.687Z,47.21
2023-03-17T09:12:05.197Z,47.47
2023-03-17T09:14:06.904Z,46.79
2023-03-17T09:16:09.066Z,46.91
2023-03-17T09:18:10.981Z,47.11
2023-03-17T09:20:13.125Z,47.24
2023-03-17T09:22:16.667Z,47.09
2023-03-17T09:24:19.457Z,47.31
2023-03-17T09:26:23.819Z,47.08
2023-03-17T09:28:30.653Z,46.71
2023-03-17T09:30:33.464Z,46.73
2023-03-17T09:32:35.395Z,46.99
2023-03-17T09:34:38.720Z,47.50
2023-03-17T09:36:40.832Z,46.62
2023-03-17T09:38:42.445Z,46.34
2023-03-17T09:40:48.452Z,46.40
2023-03-17T09:43:02.064Z,46.75
2023-03-17T09:45:14.391Z,46.02
2023-03-17T09:47:35.224Z,46.10
2023-03-17T09:49:42.467Z,45.59
2023-03-17T09:51:45.604Z,45.04
2023-03-17T09:53:54.454Z,45.18
2023-03-17T09:55:59.031Z,44.31
2023-03-17T09:58:04.147Z,44.11
2023-03-17T10:00:12.663Z,44.45
2023-03-17T10:02:21.981Z,44.51
2023-03-17T10:04:23.728Z,43.93
2023-03-17T10:06:35.348Z,44.31
2023-03-17T10:08:43.639Z,43.30
2023-03-17T10:10:49.487Z,43.37
2023-03-17T10:13:02.217Z,43.94
2023-03-17T10:15:14.097Z,43.66
2023-03-17T10:17:18.821Z,43.72
2023-03-17T10:19:26.982Z,44.25
2023-03-17T10:21:32.331Z,43.68
2023-03-17T10:23:36.202Z,43.90
2023-03-17T10:25:38.464Z,43.35
2023-03-17T10:27:42.906Z,43.00
2023-03-17T10:29:48.274Z,42.14
2023-03-17T10:31:55.182Z,42.23
2023-03-17T10:34:04.240Z,41.92
2023-03-17T10:36:10.559Z,41.17
2023-03-17T10:38:18.071Z,41.99
2023-03-17T10:40:23.314Z,41.08
2023-03-17T10:42:27.048Z,40.69
2023-03-17T10:44:39.127Z,42.24
2023-03-17T10:46:40.699Z,39.44
2023-03-17T10:48:51.170Z,40.71
2023-03-17T10:50:56.428Z,39.81
2023-03-17T10:53:00.513Z,40.39
2023-03-17T10:55:05.297Z,40.44
2023-03-17T10:57:08.607Z,40.55
2023-03-17T10:59:19.119Z,41.92
2023-03-17T11:01:30.646Z,40.52
2023-03-17T11:03:37.041Z,40.95
2023-03-17T11:05:40.511Z,40.52
2023-03-17T11:07:42.068Z,41.19
2023-03-17T11:09:43.793Z,40.08
2023-03-17T11:11:47.778Z,40.19
2023-03-17T11:13:49.635Z,40.01
2023-03-17T11:15:58.552Z,40.77
2023-03-17T11:18:02.502Z,39.97
2023-03-17T11:20:20.267Z,40.37
2023-03-17T11:22:32.226Z,39.62
2023-03-17T11:24:38.463Z,39.37
2023-03-17T11:26:59.494Z,41.42
2023-03-17T11:29:22.766Z,40.98
2023-03-17T11:31:30.854Z,41.20
2023-03-17T11:33:38.601Z,40.14
2023-03-17T11:35:49.542Z,40.67
2023-03-17T11:38:16.316Z,41.20
2023-03-17T11:40:33.406Z,40.56
2023-03-17T11:42:46.857Z,41.27
2023-03-17T11:45:11.867Z,41.97
2023-03-17T11:47:27.587Z,41.55
2023-03-17T11:49:36.555Z,40.89
2023-03-17T11:51:57.231Z,41.59
2023-03-17T11:54:24.377Z,41.58
2023-03-17T11:56:33.915Z,39.78
2023-03-17T11:58:39.692Z,39.09
2023-03-17T12:00:46.483Z,39.68
2023-03-17T12:02:54.779Z,40.72
2023-03-17T12:05:01.796Z,39.59
2023-03-17T12:07:20.845Z,40.85
2023-03-17T12:09:31.977Z,40.21
2023-03-17T12:11:40.618Z,39.15
2023-03-17T12:13:46.698Z,39.86
2023-03-17T12:15:53.026Z,38.52
2023-03-17T12:17:59.359Z,39.65
2023-03-17T12:20:12.487Z,40.68
2023-03-17T12:22:23.636Z,40.73
2023-03-17T12:24:35.766Z,40.21
2023-03-17T12:26:43.416Z,40.09
2023-03-17T12:28:50.563Z,40.09
2023-03-17T12:30:55.879Z,40.41
2023-03-17T12:33:04.672Z,39.61
2023-03-17T12:35:23.554Z,41.39
2023-03-17T12:37:27.250Z,40.20
2023-03-17T12:39:33.803Z,40.33
2023-03-17T12:42:01.290Z,41.39
2023-03-17T12:44:13.966Z,40.62
2023-03-17T12:46:37.461Z,41.73
2023-03-17T12:49:30.809Z,41.26
2023-03-17T12:51:49.744Z,40.67
2023-03-17T12:53:52.585Z,38.02
2023-03-17T12:56:02.876Z,39.00
2023-03-17T12:58:15.925Z,38.70
2023-03-17T13:00:23.589Z,38.28
2023-03-17T13:02:35.519Z,40.06
2023-03-17T13:04:38.643Z,38.94
2023-03-17T13:06:46.466Z,39.89
2023-03-17T13:08:50.287Z,39.29
2023-03-17T13:11:19.057Z,40.78
2023-03-17T13:13:36.175Z,40.71
2023-03-17T13:15:58.013Z,40.21
2023-03-17T13:18:31.316Z,40.85
2023-03-17T13:20:37.565Z,39.06
2023-03-17T13:22:41.204Z,39.42
2023-03-17T13:24:46.942Z,39.04
2023-03-17T13:26:57.833Z,40.18
2023-03-17T13:29:03.196Z,40.06
2023-03-17T13:31:11.828Z,39.90
2023-03-17T13:33:21.654Z,40.32
2023-03-17T13:35:38.674Z,39.35
2023-03-17T13:37:57.068Z,40.12
2023-03-17T13:40:14.516Z,40.28
2023-03-17T13:42:31.244Z,39.89
2023-03-17T13:45:11.997Z,39.41
2023-03-17T13:47:33.901Z,40.93
2023-03-17T13:49:35.779Z,38.65
2023-03-17T13:51:56.493Z,39.39
2023-03-17T13:54:08.948Z,39.34
2023-03-17T13:56:16.758Z,39.35
2023-03-17T13:58:33.185Z,40.27
2023-03-17T14:00:38.224Z,38.60
2023-03-17T14:02:41.300Z,38.33
2023-03-17T14:04:53.182Z,40.16
2023-03-17T14:06:58.314Z,37.75
2023-03-17T14:09:07.212Z,38.07
2023-03-17T14:11:20.908Z,38.64
2023-03-17T14:13:27.029Z,38.50
2023-03-17T14:15:34.135Z,38.36
2023-03-17T14:17:42.837Z,38.42
2023-03-17T14:20:00.627Z,38.99
2023-03-17T14:22:03.032Z,37.25
2023-03-17T14:24:19.060Z,38.87
2023-03-17T14:26:24.019Z,38.22
2023-03-17T14:28:30.476Z,37.72
2023-03-17T14:30:37.172Z,37.99
2023-03-17T14:32:39.084Z,38.71
2023-03-17T14:34:43.898Z,38.41
2023-03-17T14:36:45.525Z,38.39
2023-03-17T14:38:49.940Z,39.44
2023-03-17T14:41:01.971Z,39.77
2023-03-17T14:43:05.773Z,39.14
2023-03-17T14:45:21.680Z,40.06
2023-03-17T14:47:25.930Z,39.31
2023-03-17T14:49:28.942Z,38.96
2023-03-17T14:51:35.086Z,39.85
2023-03-17T14:53:40.873Z,39.75
2023-03-17T14:55:44.447Z,39.23
2023-03-17T14:57:50.168Z,39.53
2023-03-17T15:00:17.548Z,40.25
2023-03-17T15:02:24.291Z,40.09
2023-03-17T15:04:53.498Z,40.77
2023-03-17T15:06:57.373Z,39.59
2023-03-17T15:09:01.454Z,39.23
2023-03-17T15:11:05.604Z,39.05
2023-03-17T15:13:12.529Z,40.64
2023-03-17T15:15:23.644Z,40.25
2023-03-17T15:17:31.200Z,39.91
2023-03-17T15:19:38.953Z,40.31
2023-03-17T15:21:43.192Z,39.25
2023-03-17T15:23:45.045Z,39.26
2023-03-17T15:25:49.254Z,39.56
2023-03-17T15:27:52.110Z,39.35
2023-03-17T15:29:53.833Z,40.01
2023-03-17T15:32:02.866Z,40.33
2023-03-17T15:34:06.140Z,39.53
2023-03-17T15:36:29.353Z,39.95
2023-03-17T15:38:33.719Z,39.68
2023-03-17T15:40:35.505Z,39.83
2023-03-17T15:42:39.152Z,39.74
2023-03-17T15:44:40.843Z,40.05
2023-03-17T15:46:42.573Z,39.61
2023-03-17T15:48:44.289Z,39.57
2023-03-17T15:50:48.745Z,40.31
2023-03-17T15:52:50.902Z,39.38
2023-03-17T15:54:54.166Z,39.53
2023-03-17T15:56:56.053Z,39.59
2023-03-17T15:58:58.062Z,39.96
2023-03-17T16:00:59.711Z,40.29
2023-03-17T16:03:08.917Z,40.31
2023-03-17T16:05:16.892Z,40.96
2023-03-17T16:07:20.187Z,40.43
2023-03-17T16:09:23.684Z,40.46
2023-03-17T16:11:29.727Z,40.63
2023-03-17T16:13:31.609Z,40.12
2023-03-17T16:15:37.777Z,41.10
2023-03-17T16:17:41.074Z,40.50
2023-03-17T16:19:42.813Z,40.32
2023-03-17T16:21:45.456Z,40.63
2023-03-17T16:23:49.990Z,40.86
2023-03-17T16:25:52.657Z,41.25
2023-03-17T16:27:57.900Z,40.83
2023-03-17T16:29:59.574Z,40.94
2023-03-17T16:32:01.199Z,41.18
2023-03-17T16:34:03.122Z,41.01
2023-03-17T16:36:05.946Z,41.21
2023-03-17T16:38:10.809Z,41.49
2023-03-17T16:40:20.499Z,42.07
2023-03-17T16:42:22.634Z,41.20
2023-03-17T16:44:24.241Z,41.92
2023-03-17T16:46:26.801Z,42.06
2023-03-17T16:48:29.965Z,41.80
2023-03-17T16:50:34.047Z,42.01
2023-03-17T16:52:39.447Z,41.95
2023-03-17T16:54:41.080Z,41.56
2023-03-17T16:56:45.142Z,41.74
2023-03-17T16:58:47.816Z,41.63
2023-03-17T17:00:52.434Z,41.74
2023-03-17T17:02:55.241Z,41.65
2023-03-17T17:04:56.912Z,41.75
2023-03-17T17:06:58.528Z,41.83
2023-03-17T17:09:00.085Z,42.33
2023-03-17T17:11:01.747Z,41.97
2023-03-17T17:13:07.766Z,41.94
2023-03-17T17:15:11.623Z,42.18
2023-03-17T17:17:13.354Z,41.86
2023-03-17T17:19:16.849Z,42.08
2023-03-17T17:21:18.548Z,42.46
2023-03-17T17:23:22.870Z,42.31
2023-03-17T17:25:26.665Z,42.95
2023-03-17T17:27:28.739Z,42.21
2023-03-17T17:29:32.508Z,42.78
2023-03-17T17:31:34.470Z,42.94
2023-03-17T17:33:40.014Z,43.18
2023-03-17T17:35:43.332Z,43.12
2023-03-17T17:37:44.924Z,43.12
2023-03-17T17:39:46.743Z,42.93
2023-03-17T17:41:48.349Z,43.50
2023-03-17T17:43:50.470Z,43.28
2023-03-17T17:45:54.962Z,43.64
2023-03-17T17:47:56.522Z,43.58
2023-03-17T17:49:59.660Z,43.61
2023-03-17T17:52:01.295Z,43.73
2023-03-17T17:54:02.910Z,43.44
2023-03-17T17:56:04.739Z,43.66
2023-03-17T17:58:06.368Z,43.81
2023-03-17T18:00:12.260Z,44.43
2023-03-17T18:02:15.281Z,44.46
2023-03-17T18:04:18.757Z,44.13
2023-03-17T18:06:20.632Z,44.08
2023-03-17T18:08:23.746Z,44.26
2023-03-17T18:10:27.212Z,44.52
2023-03-17T18:12:28.957Z,45.09
2023-03-17T18:14:30.787Z,44.77
2023-03-17T18:16:32.554Z,44.56
2023-03-17T18:18:35.833Z,45.22
2023-03-17T18:20:39.693Z,44.86
2023-03-17T18:22:41.461Z,45.03
2023-03-17T18:24:43.254Z,45.13
2023-03-17T18:26:45.710Z,45.45
2023-03-17T18:28:48.062Z,45.25
2023-03-17T18:30:50.186Z,45.22
2023-03-17T18:32:55.398Z,45.40
2023-03-17T18:35:01.935Z,45.31
2023-03-17T18:37:04.298Z,45.44
2023-03-17T18:39:06.413Z,45.08
2023-03-17T18:41:08.552Z,45.33
2023-03-17T18:43:10.862Z,44.86
2023-03-17T18:45:13.313Z,45.50
2023-03-17T18:47:15.228Z,45.36
2023-03-17T18:49:17.501Z,45.12
2023-03-17T18:51:20.649Z,45.38
2023-03-17T18:53:22.234Z,45.65
2023-03-17T18:55:23.956Z,45.49
2023-03-17T18:57:26.295Z,45.55
2023-03-17T18:59:28.297Z,45.54
2023-03-17T19:01:30.304Z,45.58
2023-03-17T19:03:32.057Z,45.32
2023-03-17T19:05:35.558Z,45.59
2023-03-17T19:07:40.347Z,45.58
2023-03-17T19:09:42.416Z,45.15
2023-03-17T19:11:44.500Z,45.46
2023-03-17T19:13:46.379Z,45.51
2023-03-17T19:15:48.202Z,45.32
2023-03-17T19:17:50.078Z,45.64
2023-03-17T19:19:51.674Z,45.09
2023-03-17T19:21:53.369Z,45.12
2023-03-17T19:23:59.119Z,45.55
2023-03-17T19:26:00.848Z,45.01
2023-03-17T19:28:05.366Z,45.38
2023-03-17T19:30:09.932Z,45.19
2023-03-17T19:32:12.068Z,44.81
2023-03-17T19:34:14.029Z,44.57
2023-03-17T19:36:15.918Z,45.41
2023-03-17T19:38:18.049Z,44.63
2023-03-17T19:40:21.392Z,44.94
2023-03-17T19:42:23.013Z,45.11
2023-03-17T19:44:24.917Z,44.99
2023-03-17T19:46:26.955Z,45.27
2023-03-17T19:48:29.132Z,44.80
2023-03-17T19:50:31.588Z,44.78
2023-03-17T19:52:33.376Z,45.04
2023-03-17T19:54:35.584Z,45.11
2023-03-17T19:56:41.462Z,44.63
2023-03-17T19:58:43.724Z,44.48
2023-03-17T20:00:45.791Z,44.49
2023-03-17T20:02:47.392Z,45.22
2023-03-17T20:04:49.831Z,44.63
2023-03-17T20:06:51.504Z,44.72
2023-03-17T20:08:53.050Z,44.58
2023-03-17T20:10:54.726Z,45.19
2023-03-17T20:12:58.628Z,44.66
2023-03-17T20:15:00.688Z,44.83
2023-03-17T20:17:02.689Z,44.70
2023-03-17T20:19:04.539Z,44.77
2023-03-17T20:21:11.130Z,44.79
2023-03-17T20:23:13.200Z,44.96
2023-03-17T20:25:15.086Z,45.18
2023-03-17T20:27:19.181Z,45.23
2023-03-17T20:29:22.267Z,45.01
2023-03-17T20:31:23.979Z,45.20
2023-03-17T20:33:25.692Z,45.51
2023-03-17T20:35:27.284Z,45.46
2023-03-17T20:37:29.431Z,45.14
2023-03-17T20:39:33.723Z,45.00
2023-03-17T20:41:35.757Z,45.88
2023-03-17T20:43:37.835Z,45.27
2023-03-17T20:45:40.747Z,45.06
2023-03-17T20:47:42.404Z,45.59
2023-03-17T20:49:43.990Z,45.46
2023-03-17T20:51:45.954Z,45.90
2023-03-17T20:53:49.238Z,46.34
2023-03-17T20:55:51.057Z,45.84
2023-03-17T20:57:52.854Z,45.87
2023-03-17T20:59:54.467Z,46.44
2023-03-17T21:01:57.619Z,46.40
2023-03-17T21:04:00.190Z,46.44
2023-03-17T21:06:02.090Z,46.34
2023-03-17T21:08:04.603Z,46.38
2023-03-17T21:10:06.595Z,46.72
2023-03-17T21:12:13.913Z,46.68
2023-03-17T21:14:15.714Z,46.02
2023-03-17T21:16:20.309Z,46.11
2023-03-17T21:18:24.157Z,46.71
2023-03-17T21:20:26.049Z,46.74
2023-03-17T21:22:28.072Z,46.66
2023-03-17T21:24:31.816Z,46.52
2023-03-17T21:26:33.662Z,47.11
2023-03-17T21:28:36.529Z,47.11
2023-03-17T21:30:38.326Z,47.13
2023-03-17T21:32:40.815Z,47.06
2023-03-17T21:34:44.210Z,47.48
2023-03-17T21:36:45.943Z,47.37
2023-03-17T21:38:47.752Z,47.33
2023-03-17T21:40:49.652Z,47.50
2023-03-17T21:42:51.406Z,46.97
2023-03-17T21:44:53.364Z,47.32
2023-03-17T21:46:55.531Z,47.37
2023-03-17T21:48:57.534Z,47.43
2023-03-17T21:51:00.716Z,47.63
2023-03-17T21:53:02.533Z,46.93
2023-03-17T21:55:05.846Z,47.13
2023-03-17T21:57:07.519Z,47.48
2023-03-17T21:59:11.588Z,47.67
2023-03-17T22:01:13.675Z,47.54
2023-03-17T22:03:16.152Z,47.34
2023-03-17T22:05:18.307Z,47.28
2023-03-17T22:07:21.920Z,47.59
2023-03-17T22:09:25.420Z,47.20
2023-03-17T22:11:27.206Z,47.34
2023-03-17T22:13:29.049Z,47.16
2023-03-17T22:15:30.636Z,47.39
2023-03-17T22:17:35.187Z,47.94
2023-03-17T22:19:36.969Z,47.80
2023-03-17T22:21:38.586Z,47.74
2023-03-17T22:23:42.947Z,48.15
2023-03-17T22:25:44.826Z,47.81
2023-03-17T22:27:46.678Z,47.93
2023-03-17T22:29:48.536Z,48.43
2023-03-17T22:31:50.186Z,48.29
2023-03-17T22:33:53.783Z,47.67
2023-03-17T22:35:55.393Z,48.07
2023-03-17T22:37:56.990Z,47.68
2023-03-17T22:40:01.196Z,48.34
2023-03-17T22:42:03.190Z,47.58
2023-03-17T22:44:06.733Z,48.11
2023-03-17T22:46:09.537Z,47.87
2023-03-17T22:48:13.252Z,48.31
2023-03-17T22:50:14.787Z,48.21
2023-03-17T22:52:16.984Z,48.38
2023-03-17T22:54:18.859Z,48.13
2023-03-17T22:56:22.157Z,48.36
2023-03-17T22:58:24.167Z,48.39
2023-03-17T23:00:25.932Z,48.37
2023-03-17T23:02:27.694Z,48.46
2023-03-17T23:04:29.273Z,47.92
2023-03-17T23:06:31.171Z,48.39
2023-03-17T23:08:36.398Z,48.14
2023-03-17T23:10:39.290Z,47.98
2023-03-17T23:12:43.953Z,48.46
2023-03-17T23:14:45.536Z,48.49
2023-03-17T23:16:47.105Z,48.21
2023-03-17T23:18:49.426Z,48.42
2023-03-17T23:20:51.554Z,48.12
2023-03-17T23:22:53.671Z,48.46
2023-03-17T23:24:56.284Z,48.79
2023-03-17T23:26:58.167Z,48.75
2023-03-17T23:29:02.088Z,48.61
2023-03-17T23:31:04.279Z,48.89
2023-03-17T23:33:06.136Z,48.81
2023-03-17T23:35:09.354Z,48.57
2023-03-17T23:37:11.356Z,48.96
2023-03-17T23:39:13.344Z,49.21
2023-03-17T23:41:15.620Z,49.43
2023-03-17T23:43:17.885Z,49.32
2023-03-17T23:45:21.752Z,49.57
2023-03-17T23:47:23.841Z,48.87
2023-03-17T23:49:25.757Z,49.19
2023-03-17T23:51:27.573Z,49.50
2023-03-17T23:53:29.362Z,49.29
2023-03-17T23:55:31.636Z,48.97
2023-03-17T23:57:33.955Z,48.98
2023-03-17T23:59:35.877Z,49.33
